createdAt,value
2023-04-18T00:06:33.094Z,7.3
2023-04-18T00:16:35.475Z,7.3
2023-04-18T00:26:37.234Z,7.2
2023-04-18T00:36:39.249Z,7.1
2023-04-18T00:46:41.182Z,6.9
2023-04-18T01:06:45.347Z,6.6
2023-04-18T01:16:47.596Z,6.6
2023-04-18T01:26:49.568Z,6.6
2023-04-18T01:36:52.190Z,6.7
2023-04-18T01:46:54.236Z,6.7
2023-04-18T01:56:56.783Z,6.7
2023-04-18T02:06:59.402Z,6.7
2023-04-18T02:17:01.226Z,6.5
2023-04-18T02:27:03.100Z,6.3
2023-04-18T02:37:05.103Z,6.2
2023-04-18T02:47:07.350Z,6.2
2023-04-18T02:57:09.534Z,6.3
2023-04-18T03:07:11.764Z,6.4
2023-04-18T03:17:13.547Z,6.5
2023-04-18T03:27:15.643Z,6.5
2023-04-18T03:37:17.352Z,6.6
2023-04-18T03:57:21.814Z,6.7
2023-04-18T04:07:24.483Z,6.7
2023-04-18T04:17:27.165Z,6.8
2023-04-18T04:27:29.059Z,6.8
2023-04-18T04:37:31.382Z,6.8
2023-04-18T04:47:34.052Z,6.8
2023-04-18T04:57:36.627Z,6.8
2023-04-18T05:07:38.748Z,6.9
2023-04-18T05:17:40.933Z,6.9
2023-04-18T05:27:42.544Z,7
2023-04-18T05:37:44.478Z,7.3
2023-04-18T05:47:47.115Z,7.6
2023-04-18T05:57:49.483Z,7.5
2023-04-18T06:07:51.573Z,7.4
2023-04-18T06:17:53.534Z,7.2
2023-04-18T06:27:56.086Z,7
2023-04-18T06:37:58.149Z,7
2023-04-18T06:48:00.260Z,7.1
2023-04-18T06:58:02.304Z,7.1
2023-04-18T07:08:04.543Z,7.3
2023-04-18T07:18:06.928Z,7.4
2023-04-18T07:28:09.158Z,7.4
2023-04-18T07:38:11.362Z,7.6
2023-04-18T07:48:13.500Z,7.5
2023-04-18T07:58:15.990Z,7.7
2023-04-18T08:08:17.839Z,7.8
2023-04-18T08:18:20.113Z,8.1
2023-04-18T08:28:22.278Z,8
2023-04-18T08:48:26.857Z,8.4
2023-04-18T09:08:30.456Z,8.3
2023-04-18T09:18:32.318Z,8.4
2023-04-18T09:28:34.102Z,8.4
2023-04-18T09:38:36.741Z,8.6
2023-04-18T09:48:38.535Z,8.8
2023-04-18T09:58:40.324Z,9
2023-04-18T10:08:42.817Z,9.5
2023-04-18T10:18:44.791Z,9.5
2023-04-18T10:28:46.905Z,9.6
2023-04-18T10:38:49.225Z,9.7
2023-04-18T10:48:51.259Z,9.8
2023-04-18T10:58:53.573Z,10.2
2023-04-18T11:08:55.296Z,10.3
2023-04-18T11:18:57.868Z,10.3
2023-04-18T11:29:00.211Z,10.5
2023-04-18T11:39:02.149Z,10.5
2023-04-18T11:49:04.414Z,10.7
2023-04-18T11:59:06.704Z,10.9
2023-04-18T12:09:09.254Z,11.2
2023-04-18T12:19:11.845Z,11.2
2023-04-18T12:29:13.931Z,11.2
2023-04-18T12:39:15.542Z,11.4
2023-04-18T12:49:17.243Z,11.4
2023-04-18T12:59:27.559Z,11.7
2023-04-18T13:09:30.004Z,11.7
2023-04-18T13:19:32.446Z,12
2023-04-18T13:29:34.176Z,12.9
2023-04-18T13:39:36.096Z,13.1
2023-04-18T13:49:37.955Z,13.5
2023-04-18T13:59:40.370Z,13.8
2023-04-18T14:09:42.597Z,13.1
2023-04-18T14:19:44.953Z,13.6
2023-04-18T14:29:47.390Z,13.7
2023-04-18T14:39:49.701Z,13.3
2023-04-18T14:49:52.272Z,13
2023-04-18T14:59:54.764Z,13.3
2023-04-18T15:09:57.259Z,13
2023-04-18T15:19:59.006Z,13.2
2023-04-18T15:30:01.319Z,12.6
2023-04-18T15:40:03.329Z,13.2
2023-04-18T15:50:05.185Z,13.2
2023-04-18T16:00:07.843Z,13.4
2023-04-18T16:10:11.102Z,13.3
2023-04-18T16:20:12.905Z,13.4
2023-04-18T16:30:15.158Z,13.1
2023-04-18T16:40:17.162Z,13
2023-04-18T16:50:19.702Z,12.8
2023-04-18T17:00:21.856Z,12.9
2023-04-18T17:10:23.929Z,12.7
2023-04-18T17:20:26.197Z,12.6
2023-04-18T17:30:28.522Z,12.4
2023-04-18T17:40:30.725Z,12.2
2023-04-18T17:50:32.556Z,12
2023-04-18T18:00:35.153Z,11.9
2023-04-18T18:10:36.906Z,11.7
2023-04-18T18:20:39.436Z,11.5
2023-04-18T18:30:42.002Z,11.3
2023-04-18T18:40:43.932Z,11.1
2023-04-18T18:50:46.485Z,11
2023-04-18T19:00:48.525Z,10.7
2023-04-18T19:10:51.198Z,10.5
2023-04-18T19:20:52.980Z,10.4
2023-04-18T19:30:55.067Z,10.3
2023-04-18T19:40:57.174Z,10.1
2023-04-18T19:50:59.581Z,10
2023-04-18T20:01:01.458Z,9.8
2023-04-18T20:11:03.500Z,9.8
2023-04-18T20:21:05.956Z,9.7
2023-04-18T20:31:08.365Z,9.7
2023-04-18T20:41:10.195Z,9.6
2023-04-18T20:51:12.476Z,9.5
2023-04-18T21:01:14.932Z,9.5
2023-04-18T21:11:16.704Z,9.4
2023-04-18T21:21:19.181Z,9.5
2023-04-18T22:41:36.682Z,9.7
2023-04-18T22:51:38.983Z,9.7
2023-04-18T23:01:41.471Z,9.8
2023-04-18T23:11:44.084Z,9.9
2023-04-18T23:21:47.589Z,10
